sensor_id;sensor_type;location;lat;lon;timestamp;P1;durP1;ratioP1;P2;durP2;ratioP2
59336;SDS011;45115;52.002;4.686;2022-07-29T00:01:20;6.90;;;2.33;;
59336;SDS011;45115;52.002;4.686;2022-07-29T00:03:47;2.78;;;2.05;;
59336;SDS011;45115;52.002;4.686;2022-07-29T00:06:14;3.08;;;2.15;;
59336;SDS011;45115;52.002;4.686;2022-07-29T00:08:40;2.88;;;2.10;;
59336;SDS011;45115;52.002;4.686;2022-07-29T00:11:07;4.60;;;2.17;;
59336;SDS011;45115;52.002;4.686;2022-07-29T00:13:35;3.20;;;2.20;;
59336;SDS011;45115;52.002;4.686;2022-07-29T00:16:02;4.78;;;2.45;;
59336;SDS011;45115;52.002;4.686;2022-07-29T00:18:29;2.40;;;2.20;;
59336;SDS011;45115;52.002;4.686;2022-07-29T00:20:55;3.53;;;2.30;;
59336;SDS011;45115;52.002;4.686;2022-07-29T00:23:22;4.20;;;2.17;;
59336;SDS011;45115;52.002;4.686;2022-07-29T00:25:49;5.28;;;2.40;;
59336;SDS011;45115;52.002;4.686;2022-07-29T00:28:15;3.47;;;2.17;;
59336;SDS011;45115;52.002;4.686;2022-07-29T00:30:43;6.30;;;2.60;;
59336;SDS011;45115;52.002;4.686;2022-07-29T00:33:09;4.65;;;2.47;;
59336;SDS011;45115;52.002;4.686;2022-07-29T00:35:36;5.60;;;2.60;;
59336;SDS011;45115;52.002;4.686;2022-07-29T00:38:11;3.80;;;2.40;;
59336;SDS011;45115;52.002;4.686;2022-07-29T00:40:39;5.32;;;2.50;;
59336;SDS011;45115;52.002;4.686;2022-07-29T00:43:07;3.47;;;2.47;;
59336;SDS011;45115;52.002;4.686;2022-07-29T00:45:34;3.65;;;2.38;;
59336;SDS011;45115;52.002;4.686;2022-07-29T00:48:02;4.10;;;2.60;;
59336;SDS011;45115;52.002;4.686;2022-07-29T00:50:30;5.68;;;2.83;;
59336;SDS011;45115;52.002;4.686;2022-07-29T00:52:57;3.83;;;2.55;;
59336;SDS011;45115;52.002;4.686;2022-07-29T00:55:25;5.43;;;2.70;;
59336;SDS011;45115;52.002;4.686;2022-07-29T00:57:51;5.50;;;2.50;;
59336;SDS011;45115;52.002;4.686;2022-07-29T01:00:20;3.95;;;2.35;;
59336;SDS011;45115;52.002;4.686;2022-07-29T01:02:48;4.97;;;2.65;;
59336;SDS011;45115;52.002;4.686;2022-07-29T01:05:18;3.22;;;2.28;;
59336;SDS011;45115;52.002;4.686;2022-07-29T01:07:46;3.63;;;2.30;;
59336;SDS011;45115;52.002;4.686;2022-07-29T01:10:15;4.03;;;2.40;;
59336;SDS011;45115;52.002;4.686;2022-07-29T01:12:44;4.20;;;2.60;;
59336;SDS011;45115;52.002;4.686;2022-07-29T01:15:13;6.72;;;2.28;;
59336;SDS011;45115;52.002;4.686;2022-07-29T01:17:42;3.45;;;2.28;;
59336;SDS011;45115;52.002;4.686;2022-07-29T01:20:13;4.75;;;2.80;;
59336;SDS011;45115;52.002;4.686;2022-07-29T01:28:39;4.20;;;2.53;;
59336;SDS011;45115;52.002;4.686;2022-07-29T01:31:14;4.30;;;2.50;;
59336;SDS011;45115;52.002;4.686;2022-07-29T01:33:45;7.15;;;2.83;;
59336;SDS011;45115;52.002;4.686;2022-07-29T01:36:17;3.38;;;2.50;;
59336;SDS011;45115;52.002;4.686;2022-07-29T01:38:54;4.15;;;2.40;;
59336;SDS011;45115;52.002;4.686;2022-07-29T01:41:25;6.53;;;2.67;;
59336;SDS011;45115;52.002;4.686;2022-07-29T01:43:59;5.10;;;2.63;;
59336;SDS011;45115;52.002;4.686;2022-07-29T01:46:30;2.90;;;2.22;;
59336;SDS011;45115;52.002;4.686;2022-07-29T01:49:02;5.05;;;2.63;;
59336;SDS011;45115;52.002;4.686;2022-07-29T01:51:36;4.88;;;2.53;;
59336;SDS011;45115;52.002;4.686;2022-07-29T01:54:08;3.58;;;2.30;;
59336;SDS011;45115;52.002;4.686;2022-07-29T01:56:40;4.43;;;2.78;;
59336;SDS011;45115;52.002;4.686;2022-07-29T01:59:11;5.18;;;2.42;;
59336;SDS011;45115;52.002;4.686;2022-07-29T02:01:38;4.30;;;2.40;;
59336;SDS011;45115;52.002;4.686;2022-07-29T02:04:06;5.53;;;2.60;;
59336;SDS011;45115;52.002;4.686;2022-07-29T02:06:37;3.90;;;2.33;;
59336;SDS011;45115;52.002;4.686;2022-07-29T02:09:04;4.43;;;2.78;;
59336;SDS011;45115;52.002;4.686;2022-07-29T02:11:33;4.18;;;2.50;;
59336;SDS011;45115;52.002;4.686;2022-07-29T02:14:01;5.20;;;3.05;;
59336;SDS011;45115;52.002;4.686;2022-07-29T02:16:31;3.50;;;2.22;;
59336;SDS011;45115;52.002;4.686;2022-07-29T02:19:02;3.08;;;2.38;;
59336;SDS011;45115;52.002;4.686;2022-07-29T02:21:30;4.93;;;2.53;;
59336;SDS011;45115;52.002;4.686;2022-07-29T02:23:59;3.60;;;2.45;;
59336;SDS011;45115;52.002;4.686;2022-07-29T02:26:27;4.20;;;2.50;;
59336;SDS011;45115;52.002;4.686;2022-07-29T02:28:56;5.07;;;2.72;;
59336;SDS011;45115;52.002;4.686;2022-07-29T02:31:25;4.97;;;2.80;;
59336;SDS011;45115;52.002;4.686;2022-07-29T02:33:56;6.55;;;3.03;;
59336;SDS011;45115;52.002;4.686;2022-07-29T02:36:23;3.33;;;2.58;;
59336;SDS011;45115;52.002;4.686;2022-07-29T02:38:52;5.88;;;2.95;;
59336;SDS011;45115;52.002;4.686;2022-07-29T02:41:23;4.82;;;2.70;;
59336;SDS011;45115;52.002;4.686;2022-07-29T02:43:53;2.95;;;2.63;;
59336;SDS011;45115;52.002;4.686;2022-07-29T02:46:24;5.28;;;2.92;;
59336;SDS011;45115;52.002;4.686;2022-07-29T02:48:57;5.15;;;2.90;;
59336;SDS011;45115;52.002;4.686;2022-07-29T02:51:28;4.38;;;2.55;;
59336;SDS011;45115;52.002;4.686;2022-07-29T02:53:59;4.13;;;2.65;;
59336;SDS011;45115;52.002;4.686;2022-07-29T02:56:32;3.65;;;2.35;;
59336;SDS011;45115;52.002;4.686;2022-07-29T02:59:03;5.43;;;2.85;;
59336;SDS011;45115;52.002;4.686;2022-07-29T03:01:33;4.65;;;2.60;;
59336;SDS011;45115;52.002;4.686;2022-07-29T03:04:03;5.32;;;3.33;;
59336;SDS011;45115;52.002;4.686;2022-07-29T03:06:31;4.25;;;2.80;;
59336;SDS011;45115;52.002;4.686;2022-07-29T03:09:00;6.25;;;3.30;;
59336;SDS011;45115;52.002;4.686;2022-07-29T03:11:28;5.22;;;2.90;;
59336;SDS011;45115;52.002;4.686;2022-07-29T03:13:55;5.30;;;2.95;;
59336;SDS011;45115;52.002;4.686;2022-07-29T03:16:23;5.10;;;3.13;;
59336;SDS011;45115;52.002;4.686;2022-07-29T03:18:50;8.05;;;3.92;;
59336;SDS011;45115;52.002;4.686;2022-07-29T03:21:19;7.22;;;3.55;;
59336;SDS011;45115;52.002;4.686;2022-07-29T03:23:45;6.55;;;3.13;;
59336;SDS011;45115;52.002;4.686;2022-07-29T03:26:12;7.82;;;3.63;;
59336;SDS011;45115;52.002;4.686;2022-07-29T03:28:39;5.30;;;3.10;;
59336;SDS011;45115;52.002;4.686;2022-07-29T03:31:05;5.20;;;3.40;;
59336;SDS011;45115;52.002;4.686;2022-07-29T03:33:32;7.25;;;3.42;;
59336;SDS011;45115;52.002;4.686;2022-07-29T03:35:58;5.53;;;3.33;;
59336;SDS011;45115;52.002;4.686;2022-07-29T03:38:29;4.32;;;3.35;;
59336;SDS011;45115;52.002;4.686;2022-07-29T03:41:00;6.70;;;3.42;;
59336;SDS011;45115;52.002;4.686;2022-07-29T03:43:30;6.90;;;3.53;;
59336;SDS011;45115;52.002;4.686;2022-07-29T03:46:00;6.13;;;3.17;;
59336;SDS011;45115;52.002;4.686;2022-07-29T03:48:30;8.18;;;3.30;;
59336;SDS011;45115;52.002;4.686;2022-07-29T03:51:00;8.57;;;3.53;;
59336;SDS011;45115;52.002;4.686;2022-07-29T03:53:28;6.05;;;3.30;;
59336;SDS011;45115;52.002;4.686;2022-07-29T03:55:58;6.53;;;3.47;;
59336;SDS011;45115;52.002;4.686;2022-07-29T03:58:26;6.18;;;3.90;;
59336;SDS011;45115;52.002;4.686;2022-07-29T04:00:54;5.60;;;3.33;;
59336;SDS011;45115;52.002;4.686;2022-07-29T04:03:21;6.18;;;3.78;;
59336;SDS011;45115;52.002;4.686;2022-07-29T04:05:57;4.82;;;3.15;;
59336;SDS011;45115;52.002;4.686;2022-07-29T04:08:24;6.45;;;3.63;;
59336;SDS011;45115;52.002;4.686;2022-07-29T04:10:52;7.68;;;3.72;;
59336;SDS011;45115;52.002;4.686;2022-07-29T04:13:19;5.65;;;3.63;;
59336;SDS011;45115;52.002;4.686;2022-07-29T04:15:46;4.93;;;3.47;;
59336;SDS011;45115;52.002;4.686;2022-07-29T04:18:13;7.15;;;3.63;;
59336;SDS011;45115;52.002;4.686;2022-07-29T04:20:39;7.40;;;3.63;;
59336;SDS011;45115;52.002;4.686;2022-07-29T04:23:06;6.65;;;3.50;;
59336;SDS011;45115;52.002;4.686;2022-07-29T04:25:33;7.32;;;3.50;;
59336;SDS011;45115;52.002;4.686;2022-07-29T04:28:04;5.43;;;3.67;;
59336;SDS011;45115;52.002;4.686;2022-07-29T04:30:32;6.35;;;4.05;;
59336;SDS011;45115;52.002;4.686;2022-07-29T04:33:00;6.60;;;3.08;;
59336;SDS011;45115;52.002;4.686;2022-07-29T04:35:28;5.07;;;3.50;;
59336;SDS011;45115;52.002;4.686;2022-07-29T04:37:54;7.95;;;3.85;;
59336;SDS011;45115;52.002;4.686;2022-07-29T04:40:21;5.90;;;3.58;;
59336;SDS011;45115;52.002;4.686;2022-07-29T04:42:48;6.63;;;3.22;;
59336;SDS011;45115;52.002;4.686;2022-07-29T04:45:16;7.93;;;3.80;;
59336;SDS011;45115;52.002;4.686;2022-07-29T04:47:43;6.78;;;3.90;;
59336;SDS011;45115;52.002;4.686;2022-07-29T04:50:09;7.45;;;3.83;;
59336;SDS011;45115;52.002;4.686;2022-07-29T04:52:40;4.95;;;3.28;;
59336;SDS011;45115;52.002;4.686;2022-07-29T04:55:07;5.07;;;3.20;;
59336;SDS011;45115;52.002;4.686;2022-07-29T04:57:34;6.47;;;3.47;;
59336;SDS011;45115;52.002;4.686;2022-07-29T05:00:01;6.65;;;3.50;;
59336;SDS011;45115;52.002;4.686;2022-07-29T05:02:29;6.15;;;3.47;;
59336;SDS011;45115;52.002;4.686;2022-07-29T05:04:56;8.00;;;3.53;;
59336;SDS011;45115;52.002;4.686;2022-07-29T05:07:22;4.65;;;3.40;;
59336;SDS011;45115;52.002;4.686;2022-07-29T05:09:49;5.60;;;3.40;;
59336;SDS011;45115;52.002;4.686;2022-07-29T05:12:15;6.30;;;3.08;;
59336;SDS011;45115;52.002;4.686;2022-07-29T05:14:45;6.47;;;3.22;;
59336;SDS011;45115;52.002;4.686;2022-07-29T05:17:11;6.50;;;3.45;;
59336;SDS011;45115;52.002;4.686;2022-07-29T05:19:39;4.40;;;2.75;;
59336;SDS011;45115;52.002;4.686;2022-07-29T05:22:06;5.47;;;3.42;;
59336;SDS011;45115;52.002;4.686;2022-07-29T05:24:32;5.45;;;3.00;;
59336;SDS011;45115;52.002;4.686;2022-07-29T05:26:59;5.53;;;3.17;;
59336;SDS011;45115;52.002;4.686;2022-07-29T05:29:26;4.88;;;3.13;;
59336;SDS011;45115;52.002;4.686;2022-07-29T05:31:52;5.65;;;3.40;;
59336;SDS011;45115;52.002;4.686;2022-07-29T05:34:19;5.65;;;3.25;;
59336;SDS011;45115;52.002;4.686;2022-07-29T05:36:47;5.25;;;3.00;;
59336;SDS011;45115;52.002;4.686;2022-07-29T05:39:15;3.70;;;2.83;;
59336;SDS011;45115;52.002;4.686;2022-07-29T05:41:41;3.90;;;3.05;;
59336;SDS011;45115;52.002;4.686;2022-07-29T05:44:08;5.35;;;2.95;;
59336;SDS011;45115;52.002;4.686;2022-07-29T05:46:34;4.45;;;2.80;;
59336;SDS011;45115;52.002;4.686;2022-07-29T05:49:01;5.10;;;2.97;;
59336;SDS011;45115;52.002;4.686;2022-07-29T05:51:28;5.68;;;2.95;;
59336;SDS011;45115;52.002;4.686;2022-07-29T05:53:57;3.35;;;2.78;;
59336;SDS011;45115;52.002;4.686;2022-07-29T05:56:24;5.45;;;3.30;;
59336;SDS011;45115;52.002;4.686;2022-07-29T05:58:51;6.78;;;3.30;;
59336;SDS011;45115;52.002;4.686;2022-07-29T06:01:18;4.18;;;2.78;;
59336;SDS011;45115;52.002;4.686;2022-07-29T06:03:44;5.38;;;2.65;;
59336;SDS011;45115;52.002;4.686;2022-07-29T06:06:11;4.30;;;2.75;;
59336;SDS011;45115;52.002;4.686;2022-07-29T06:08:38;6.60;;;2.83;;
59336;SDS011;45115;52.002;4.686;2022-07-29T06:11:06;5.80;;;3.28;;
59336;SDS011;45115;52.002;4.686;2022-07-29T06:13:33;5.70;;;2.88;;
59336;SDS011;45115;52.002;4.686;2022-07-29T06:16:00;6.35;;;2.65;;
59336;SDS011;45115;52.002;4.686;2022-07-29T06:18:27;4.65;;;2.88;;
59336;SDS011;45115;52.002;4.686;2022-07-29T06:20:54;5.10;;;2.80;;
59336;SDS011;45115;52.002;4.686;2022-07-29T06:23:21;3.13;;;2.47;;
59336;SDS011;45115;52.002;4.686;2022-07-29T06:25:47;3.25;;;2.80;;
59336;SDS011;45115;52.002;4.686;2022-07-29T06:28:15;5.07;;;2.83;;
59336;SDS011;45115;52.002;4.686;2022-07-29T06:30:42;4.18;;;2.88;;
59336;SDS011;45115;52.002;4.686;2022-07-29T06:33:09;6.55;;;2.90;;
59336;SDS011;45115;52.002;4.686;2022-07-29T06:35:35;5.82;;;3.03;;
59336;SDS011;45115;52.002;4.686;2022-07-29T06:38:04;7.20;;;3.20;;
59336;SDS011;45115;52.002;4.686;2022-07-29T06:40:30;5.55;;;3.00;;
59336;SDS011;45115;52.002;4.686;2022-07-29T06:43:16;5.95;;;3.50;;
59336;SDS011;45115;52.002;4.686;2022-07-29T06:45:42;4.65;;;2.95;;
59336;SDS011;45115;52.002;4.686;2022-07-29T06:48:09;6.72;;;3.03;;
59336;SDS011;45115;52.002;4.686;2022-07-29T06:50:36;5.50;;;3.13;;
59336;SDS011;45115;52.002;4.686;2022-07-29T06:53:02;6.75;;;3.00;;
59336;SDS011;45115;52.002;4.686;2022-07-29T06:55:29;3.95;;;2.90;;
59336;SDS011;45115;52.002;4.686;2022-07-29T06:57:56;4.57;;;2.90;;
59336;SDS011;45115;52.002;4.686;2022-07-29T07:00:24;4.78;;;3.50;;
59336;SDS011;45115;52.002;4.686;2022-07-29T07:02:51;4.95;;;3.00;;
59336;SDS011;45115;52.002;4.686;2022-07-29T07:05:17;6.45;;;2.97;;
59336;SDS011;45115;52.002;4.686;2022-07-29T07:07:44;5.97;;;3.20;;
59336;SDS011;45115;52.002;4.686;2022-07-29T07:10:10;4.68;;;3.10;;
59336;SDS011;45115;52.002;4.686;2022-07-29T07:12:37;8.65;;;3.42;;
59336;SDS011;45115;52.002;4.686;2022-07-29T07:15:04;5.22;;;3.20;;
59336;SDS011;45115;52.002;4.686;2022-07-29T07:17:33;5.32;;;3.10;;
59336;SDS011;45115;52.002;4.686;2022-07-29T07:19:59;5.90;;;3.13;;
59336;SDS011;45115;52.002;4.686;2022-07-29T07:22:26;6.72;;;3.38;;
59336;SDS011;45115;52.002;4.686;2022-07-29T07:24:53;5.07;;;3.70;;
59336;SDS011;45115;52.002;4.686;2022-07-29T07:27:19;5.40;;;3.20;;
59336;SDS011;45115;52.002;4.686;2022-07-29T07:29:46;4.40;;;3.38;;
59336;SDS011;45115;52.002;4.686;2022-07-29T07:32:13;5.35;;;3.30;;
59336;SDS011;45115;52.002;4.686;2022-07-29T07:34:42;6.00;;;3.10;;
59336;SDS011;45115;52.002;4.686;2022-07-29T07:37:09;5.75;;;3.10;;
59336;SDS011;45115;52.002;4.686;2022-07-29T07:39:35;7.32;;;3.20;;
59336;SDS011;45115;52.002;4.686;2022-07-29T07:42:02;6.07;;;3.28;;
59336;SDS011;45115;52.002;4.686;2022-07-29T07:44:29;5.75;;;3.47;;
59336;SDS011;45115;52.002;4.686;2022-07-29T07:46:56;4.20;;;3.13;;
59336;SDS011;45115;52.002;4.686;2022-07-29T07:49:22;7.20;;;3.38;;
59336;SDS011;45115;52.002;4.686;2022-07-29T07:51:50;5.30;;;3.38;;
59336;SDS011;45115;52.002;4.686;2022-07-29T07:54:17;7.72;;;3.72;;
59336;SDS011;45115;52.002;4.686;2022-07-29T07:56:44;4.55;;;2.85;;
59336;SDS011;45115;52.002;4.686;2022-07-29T07:59:11;5.63;;;3.28;;
59336;SDS011;45115;52.002;4.686;2022-07-29T08:01:37;5.97;;;3.35;;
59336;SDS011;45115;52.002;4.686;2022-07-29T08:04:04;3.70;;;3.28;;
59336;SDS011;45115;52.002;4.686;2022-07-29T08:06:31;7.65;;;3.60;;
59336;SDS011;45115;52.002;4.686;2022-07-29T08:09:01;5.05;;;3.10;;
59336;SDS011;45115;52.002;4.686;2022-07-29T08:11:28;5.35;;;3.40;;
59336;SDS011;45115;52.002;4.686;2022-07-29T08:13:54;5.18;;;3.20;;
59336;SDS011;45115;52.002;4.686;2022-07-29T08:16:21;5.10;;;3.17;;
59336;SDS011;45115;52.002;4.686;2022-07-29T08:18:50;4.53;;;3.13;;
59336;SDS011;45115;52.002;4.686;2022-07-29T08:21:22;4.97;;;2.90;;
59336;SDS011;45115;52.002;4.686;2022-07-29T08:23:50;7.20;;;3.70;;
59336;SDS011;45115;52.002;4.686;2022-07-29T08:26:19;5.20;;;2.92;;
59336;SDS011;45115;52.002;4.686;2022-07-29T08:28:47;5.22;;;3.40;;
59336;SDS011;45115;52.002;4.686;2022-07-29T08:31:16;6.15;;;3.58;;
59336;SDS011;45115;52.002;4.686;2022-07-29T08:33:43;5.45;;;3.10;;
59336;SDS011;45115;52.002;4.686;2022-07-29T08:36:10;5.78;;;3.08;;
59336;SDS011;45115;52.002;4.686;2022-07-29T08:38:38;6.55;;;3.33;;
59336;SDS011;45115;52.002;4.686;2022-07-29T08:41:04;6.57;;;3.10;;
59336;SDS011;45115;52.002;4.686;2022-07-29T08:43:33;6.25;;;2.90;;
59336;SDS011;45115;52.002;4.686;2022-07-29T08:46:02;6.18;;;3.25;;
59336;SDS011;45115;52.002;4.686;2022-07-29T08:48:29;6.65;;;3.72;;
59336;SDS011;45115;52.002;4.686;2022-07-29T08:50:55;5.90;;;3.47;;
59336;SDS011;45115;52.002;4.686;2022-07-29T08:53:24;6.72;;;3.10;;
59336;SDS011;45115;52.002;4.686;2022-07-29T08:55:52;6.28;;;3.20;;
59336;SDS011;45115;52.002;4.686;2022-07-29T08:58:19;7.25;;;3.55;;
59336;SDS011;45115;52.002;4.686;2022-07-29T09:00:50;5.20;;;3.20;;
59336;SDS011;45115;52.002;4.686;2022-07-29T09:03:18;4.95;;;3.20;;
59336;SDS011;45115;52.002;4.686;2022-07-29T09:05:46;7.30;;;3.15;;
59336;SDS011;45115;52.002;4.686;2022-07-29T09:08:13;3.63;;;2.95;;
59336;SDS011;45115;52.002;4.686;2022-07-29T09:10:40;5.80;;;3.65;;
59336;SDS011;45115;52.002;4.686;2022-07-29T09:13:07;5.68;;;3.45;;
59336;SDS011;45115;52.002;4.686;2022-07-29T09:15:34;7.60;;;3.45;;
59336;SDS011;45115;52.002;4.686;2022-07-29T09:18:02;7.20;;;3.60;;
59336;SDS011;45115;52.002;4.686;2022-07-29T09:20:29;6.63;;;3.20;;
59336;SDS011;45115;52.002;4.686;2022-07-29T09:23:16;5.68;;;3.30;;
59336;SDS011;45115;52.002;4.686;2022-07-29T09:25:42;7.57;;;3.50;;
59336;SDS011;45115;52.002;4.686;2022-07-29T09:28:09;4.57;;;3.15;;
59336;SDS011;45115;52.002;4.686;2022-07-29T09:30:39;7.18;;;3.78;;
59336;SDS011;45115;52.002;4.686;2022-07-29T09:33:17;6.78;;;3.92;;
59336;SDS011;45115;52.002;4.686;2022-07-29T09:35:44;8.82;;;3.97;;
59336;SDS011;45115;52.002;4.686;2022-07-29T09:38:11;6.38;;;3.42;;
59336;SDS011;45115;52.002;4.686;2022-07-29T09:40:39;4.63;;;3.65;;
59336;SDS011;45115;52.002;4.686;2022-07-29T09:43:09;6.78;;;3.53;;
59336;SDS011;45115;52.002;4.686;2022-07-29T09:45:38;7.97;;;4.20;;
59336;SDS011;45115;52.002;4.686;2022-07-29T09:48:13;7.50;;;3.58;;
59336;SDS011;45115;52.002;4.686;2022-07-29T09:50:42;7.40;;;3.65;;
59336;SDS011;45115;52.002;4.686;2022-07-29T09:53:10;5.33;;;3.60;;
59336;SDS011;45115;52.002;4.686;2022-07-29T09:55:47;6.68;;;3.80;;
59336;SDS011;45115;52.002;4.686;2022-07-29T09:58:15;5.90;;;3.42;;
59336;SDS011;45115;52.002;4.686;2022-07-29T10:00:43;7.43;;;3.80;;
59336;SDS011;45115;52.002;4.686;2022-07-29T10:03:10;8.35;;;3.80;;
59336;SDS011;45115;52.002;4.686;2022-07-29T10:05:37;7.75;;;3.72;;
59336;SDS011;45115;52.002;4.686;2022-07-29T10:08:06;8.00;;;4.03;;
59336;SDS011;45115;52.002;4.686;2022-07-29T10:10:34;7.15;;;3.40;;
59336;SDS011;45115;52.002;4.686;2022-07-29T10:13:03;8.95;;;3.90;;
59336;SDS011;45115;52.002;4.686;2022-07-29T10:15:32;7.32;;;3.45;;
59336;SDS011;45115;52.002;4.686;2022-07-29T10:18:02;6.40;;;3.20;;
59336;SDS011;45115;52.002;4.686;2022-07-29T10:20:29;6.53;;;3.75;;
59336;SDS011;45115;52.002;4.686;2022-07-29T10:22:56;6.97;;;3.72;;
59336;SDS011;45115;52.002;4.686;2022-07-29T10:25:24;7.97;;;3.50;;
59336;SDS011;45115;52.002;4.686;2022-07-29T10:27:52;5.57;;;3.22;;
59336;SDS011;45115;52.002;4.686;2022-07-29T10:30:20;8.90;;;3.58;;
59336;SDS011;45115;52.002;4.686;2022-07-29T10:33:01;6.60;;;3.05;;
59336;SDS011;45115;52.002;4.686;2022-07-29T10:35:44;7.60;;;2.90;;
59336;SDS011;45115;52.002;4.686;2022-07-29T10:38:26;7.50;;;3.25;;
59336;SDS011;45115;52.002;4.686;2022-07-29T10:41:04;7.78;;;3.42;;
59336;SDS011;45115;52.002;4.686;2022-07-29T10:43:55;4.68;;;3.28;;
59336;SDS011;45115;52.002;4.686;2022-07-29T10:46:26;7.25;;;3.55;;
59336;SDS011;45115;52.002;4.686;2022-07-29T10:49:06;7.40;;;3.28;;
59336;SDS011;45115;52.002;4.686;2022-07-29T10:51:53;5.45;;;2.90;;
59336;SDS011;45115;52.002;4.686;2022-07-29T10:54:37;7.03;;;2.90;;
59336;SDS011;45115;52.002;4.686;2022-07-29T10:57:13;6.50;;;3.55;;
59336;SDS011;45115;52.002;4.686;2022-07-29T10:59:40;3.80;;;2.90;;
59336;SDS011;45115;52.002;4.686;2022-07-29T11:05:10;4.50;;;2.80;;
59336;SDS011;45115;52.002;4.686;2022-07-29T11:07:39;4.18;;;2.42;;
59336;SDS011;45115;52.002;4.686;2022-07-29T11:10:19;7.95;;;2.80;;
59336;SDS011;45115;52.002;4.686;2022-07-29T11:15:17;4.28;;;2.78;;
59336;SDS011;45115;52.002;4.686;2022-07-29T11:20:36;4.50;;;3.10;;
59336;SDS011;45115;52.002;4.686;2022-07-29T11:23:17;6.03;;;3.42;;
59336;SDS011;45115;52.002;4.686;2022-07-29T11:28:15;5.72;;;3.25;;
59336;SDS011;45115;52.002;4.686;2022-07-29T11:30:48;6.30;;;3.05;;
59336;SDS011;45115;52.002;4.686;2022-07-29T11:33:29;4.18;;;3.30;;
59336;SDS011;45115;52.002;4.686;2022-07-29T11:36:09;5.93;;;3.00;;
59336;SDS011;45115;52.002;4.686;2022-07-29T11:38:36;6.40;;;2.95;;
59336;SDS011;45115;52.002;4.686;2022-07-29T11:41:19;5.32;;;3.45;;
59336;SDS011;45115;52.002;4.686;2022-07-29T11:43:48;7.95;;;3.50;;
59336;SDS011;45115;52.002;4.686;2022-07-29T11:46:16;9.75;;;4.28;;
59336;SDS011;45115;52.002;4.686;2022-07-29T11:49:06;7.63;;;3.25;;
59336;SDS011;45115;52.002;4.686;2022-07-29T11:51:34;8.77;;;3.10;;
59336;SDS011;45115;52.002;4.686;2022-07-29T11:54:01;5.18;;;3.20;;
59336;SDS011;45115;52.002;4.686;2022-07-29T11:56:29;6.30;;;3.53;;
59336;SDS011;45115;52.002;4.686;2022-07-29T11:59:05;6.72;;;3.08;;
59336;SDS011;45115;52.002;4.686;2022-07-29T12:01:34;4.38;;;2.60;;
59336;SDS011;45115;52.002;4.686;2022-07-29T12:04:04;6.03;;;3.22;;
59336;SDS011;45115;52.002;4.686;2022-07-29T12:06:31;8.68;;;3.03;;
59336;SDS011;45115;52.002;4.686;2022-07-29T12:08:58;5.05;;;2.80;;
59336;SDS011;45115;52.002;4.686;2022-07-29T12:11:25;5.43;;;2.92;;
59336;SDS011;45115;52.002;4.686;2022-07-29T12:13:52;5.43;;;3.13;;
59336;SDS011;45115;52.002;4.686;2022-07-29T12:16:20;6.47;;;2.58;;
59336;SDS011;45115;52.002;4.686;2022-07-29T12:18:54;6.72;;;2.80;;
59336;SDS011;45115;52.002;4.686;2022-07-29T12:21:21;4.07;;;2.70;;
59336;SDS011;45115;52.002;4.686;2022-07-29T12:23:52;5.32;;;2.75;;
59336;SDS011;45115;52.002;4.686;2022-07-29T12:26:19;6.00;;;2.75;;
59336;SDS011;45115;52.002;4.686;2022-07-29T12:28:46;6.30;;;2.80;;
59336;SDS011;45115;52.002;4.686;2022-07-29T12:31:13;4.55;;;2.58;;
59336;SDS011;45115;52.002;4.686;2022-07-29T12:33:42;5.13;;;2.72;;
59336;SDS011;45115;52.002;4.686;2022-07-29T12:36:17;7.10;;;3.08;;
59336;SDS011;45115;52.002;4.686;2022-07-29T12:38:44;6.45;;;3.03;;
59336;SDS011;45115;52.002;4.686;2022-07-29T12:41:11;4.97;;;3.17;;
59336;SDS011;45115;52.002;4.686;2022-07-29T12:43:38;8.13;;;3.00;;
59336;SDS011;45115;52.002;4.686;2022-07-29T12:46:18;8.10;;;3.20;;
59336;SDS011;45115;52.002;4.686;2022-07-29T12:48:49;6.25;;;3.47;;
59336;SDS011;45115;52.002;4.686;2022-07-29T12:51:25;7.78;;;3.53;;
59336;SDS011;45115;52.002;4.686;2022-07-29T12:54:05;4.70;;;2.88;;
59336;SDS011;45115;52.002;4.686;2022-07-29T12:59:10;6.30;;;3.00;;
59336;SDS011;45115;52.002;4.686;2022-07-29T13:01:38;7.05;;;2.90;;
59336;SDS011;45115;52.002;4.686;2022-07-29T13:04:06;7.05;;;3.17;;
59336;SDS011;45115;52.002;4.686;2022-07-29T13:06:35;7.15;;;3.58;;
59336;SDS011;45115;52.002;4.686;2022-07-29T13:09:04;6.28;;;3.20;;
59336;SDS011;45115;52.002;4.686;2022-07-29T13:11:33;7.38;;;3.22;;
59336;SDS011;45115;52.002;4.686;2022-07-29T13:14:01;7.63;;;3.10;;
59336;SDS011;45115;52.002;4.686;2022-07-29T13:16:28;5.78;;;3.35;;
59336;SDS011;45115;52.002;4.686;2022-07-29T13:19:07;4.47;;;2.70;;
59336;SDS011;45115;52.002;4.686;2022-07-29T13:21:35;6.22;;;3.70;;
59336;SDS011;45115;52.002;4.686;2022-07-29T13:24:03;8.25;;;3.88;;
59336;SDS011;45115;52.002;4.686;2022-07-29T13:26:31;8.80;;;3.72;;
59336;SDS011;45115;52.002;4.686;2022-07-29T13:28:58;7.38;;;3.40;;
59336;SDS011;45115;52.002;4.686;2022-07-29T13:31:25;6.63;;;3.10;;
59336;SDS011;45115;52.002;4.686;2022-07-29T13:33:51;6.03;;;2.97;;
59336;SDS011;45115;52.002;4.686;2022-07-29T13:36:19;7.35;;;3.53;;
59336;SDS011;45115;52.002;4.686;2022-07-29T13:38:46;4.07;;;3.30;;
59336;SDS011;45115;52.002;4.686;2022-07-29T13:41:13;5.65;;;3.38;;
59336;SDS011;45115;52.002;4.686;2022-07-29T13:43:39;7.88;;;3.65;;
59336;SDS011;45115;52.002;4.686;2022-07-29T13:46:06;7.32;;;4.10;;
59336;SDS011;45115;52.002;4.686;2022-07-29T13:48:33;7.53;;;3.50;;
59336;SDS011;45115;52.002;4.686;2022-07-29T13:50:59;5.63;;;3.50;;
59336;SDS011;45115;52.002;4.686;2022-07-29T13:53:28;7.82;;;4.00;;
59336;SDS011;45115;52.002;4.686;2022-07-29T13:55:58;6.07;;;3.20;;
59336;SDS011;45115;52.002;4.686;2022-07-29T13:58:25;8.05;;;3.92;;
59336;SDS011;45115;52.002;4.686;2022-07-29T14:00:51;7.47;;;3.28;;
59336;SDS011;45115;52.002;4.686;2022-07-29T14:03:18;8.98;;;2.90;;
59336;SDS011;45115;52.002;4.686;2022-07-29T14:05:44;7.80;;;3.20;;
59336;SDS011;45115;52.002;4.686;2022-07-29T14:08:11;4.38;;;2.97;;
59336;SDS011;45115;52.002;4.686;2022-07-29T14:10:39;4.50;;;3.22;;
59336;SDS011;45115;52.002;4.686;2022-07-29T14:13:06;7.40;;;3.13;;
59336;SDS011;45115;52.002;4.686;2022-07-29T14:15:32;4.38;;;3.10;;
59336;SDS011;45115;52.002;4.686;2022-07-29T14:17:59;6.75;;;3.25;;
59336;SDS011;45115;52.002;4.686;2022-07-29T14:20:26;6.07;;;3.30;;
59336;SDS011;45115;52.002;4.686;2022-07-29T14:22:55;5.68;;;3.20;;
59336;SDS011;45115;52.002;4.686;2022-07-29T14:25:21;5.78;;;3.00;;
59336;SDS011;45115;52.002;4.686;2022-07-29T14:27:49;6.93;;;3.20;;
59336;SDS011;45115;52.002;4.686;2022-07-29T14:30:18;6.63;;;3.20;;
59336;SDS011;45115;52.002;4.686;2022-07-29T14:32:44;4.55;;;2.97;;
59336;SDS011;45115;52.002;4.686;2022-07-29T14:35:11;6.40;;;2.97;;
59336;SDS011;45115;52.002;4.686;2022-07-29T14:37:38;5.85;;;2.92;;
59336;SDS011;45115;52.002;4.686;2022-07-29T14:40:05;4.90;;;2.80;;
59336;SDS011;45115;52.002;4.686;2022-07-29T14:42:32;4.75;;;3.03;;
59336;SDS011;45115;52.002;4.686;2022-07-29T14:45:00;5.22;;;3.00;;
59336;SDS011;45115;52.002;4.686;2022-07-29T14:47:27;5.82;;;3.20;;
59336;SDS011;45115;52.002;4.686;2022-07-29T14:49:54;3.55;;;2.47;;
59336;SDS011;45115;52.002;4.686;2022-07-29T14:52:20;5.95;;;3.03;;
59336;SDS011;45115;52.002;4.686;2022-07-29T14:54:47;5.35;;;2.95;;
59336;SDS011;45115;52.002;4.686;2022-07-29T14:57:16;7.53;;;3.25;;
59336;SDS011;45115;52.002;4.686;2022-07-29T14:59:42;4.65;;;2.95;;
59336;SDS011;45115;52.002;4.686;2022-07-29T15:02:10;5.97;;;2.85;;
59336;SDS011;45115;52.002;4.686;2022-07-29T15:04:37;5.20;;;3.13;;
59336;SDS011;45115;52.002;4.686;2022-07-29T15:07:04;8.50;;;3.15;;
59336;SDS011;45115;52.002;4.686;2022-07-29T15:09:33;5.60;;;2.72;;
59336;SDS011;45115;52.002;4.686;2022-07-29T15:11:59;6.30;;;2.75;;
59336;SDS011;45115;52.002;4.686;2022-07-29T15:14:28;5.07;;;2.85;;
59336;SDS011;45115;52.002;4.686;2022-07-29T15:16:54;6.10;;;2.70;;